INFORMACIÓN METAR y TAF
METAR FOR GCXO
ADDS - METARS form results

(0349 UTC 22 June 2021)
Data provider http://aviationweather.gov/metar/data/
 
METAR text: GCXO 220330Z AUTO 32014KT 9999 BKN003 BKN008 15/15 Q1021
Conditions at: GCXO (TENERIFE/LOS ROD, ES) observed 0330 UTC 22 June 2021
Temperature: 15.0°C (59°F)
Dewpoint: 15.0°C (59°F) [RH = 100%]
Pressure (altimeter): 30.15 inches Hg (1021.0 mb)
Winds: from the NW (320 degrees) at 16 MPH (14 knots; 7.2 m/s)
Visibility: 6 or more miles (10+ km)
Ceiling: 300 feet AGL
Clouds: broken clouds at 300 feet AGL
broken clouds at 800 feet AGL
Weather: no significant weather observed at this time

METAR text: GCXO 220300Z AUTO 32014KT 290V350 8000 SCT003 BKN015 15/14 Q1021
Conditions at: GCXO (TENERIFE/LOS ROD, ES) observed 0300 UTC 22 June 2021
Temperature: 15.0°C (59°F)
Dewpoint: 14.0°C (57°F) [RH = 94%]
Pressure (altimeter): 30.15 inches Hg (1021.0 mb)
Winds: from the NW (320 degrees) at 16 MPH (14 knots; 7.2 m/s)
Visibility: 5 miles ( 8 km)
Ceiling: 1500 feet AGL
Clouds: scattered clouds at 300 feet AGL
broken clouds at 1500 feet AGL
Weather: no significant weather observed at this time

Forecast for: GCXO (TENERIFE/LOS ROD, ES)
Text: TAF GCXO 220200Z 2203/2303 31012KT 9999 BKN007 TX20/2214Z TN15/2206Z
Forecast period: 0300 UTC 22 June 2021 to 0300 UTC 23 June 2021
Forecast type: FROM: standard forecast or significant change
Winds: from the NW (310 degrees) at 14 MPH (12 knots; 6.2 m/s)
Visibility: 6 or more miles (10+ km)
Ceiling: 700 feet AGL
Clouds: broken clouds at 700 feet AGL
Weather: no significant weather forecast for this period
Text: PROB40
Forecast period: 0300 to 1000 UTC 22 June 2021
Forecast type: TEMPORARY: The following changes expected for less than half the time period
Visibility: 1.55 miles (2.49 km)
Ceiling: 300 feet AGL
Clouds: broken clouds at 300 feet AGL
Weather: DZ BCFG  (moderate drizzle, patches of fog)
Text: TEMPO 2203/2210 2500 DZ BCFG BKN003
Forecast period: 0500 to 0900 UTC 22 June 2021
Forecast type: TEMPORARY: The following changes expected for less than half the time period
Visibility: 0.56 miles (0.90 km)
Ceiling: 100 feet AGL
Clouds: broken clouds at 100 feet AGL
Weather: DZ BCFG  (moderate drizzle, patches of fog)

 MAPA DE AEROPUERTO

 INFORMACIÓN DE PISTA
Pista 12 Longitud 11155 ft Ancho 148 ft
Elevación 2060 ft Umbral desplazado 0 ft Rumbo de pista 111
Pista 30 Longitud 11155 ft Ancho 148 ft
Elevación 2002 ft Umbral desplazado 0 ft Rumbo de pista 291

 FRECUANCIAS DEL AEROPUERTO
Tipo APP Nombre APP Frecuencia 119.7 MHZ
Tipo ATIS Nombre ATIS Frecuencia 118.575 MHZ
Tipo GND Nombre GND Frecuencia 121.7 MHZ
Tipo TWR Nombre TWR Frecuencia 118.7 MHZ

 RADIO AYUDAS DEL AEROPUERTO
Tipo VOR-DME Nombre Tenerife Norte Frecuencia 117700 KHZ
Tipo NDB Nombre Tenerife Norte Frecuencia 410 KHZ



Powered by Virtual Airlines Manager [v2.6.2]